sensor_id;sensor_type;location;lat;lon;timestamp;temperature;humidity
14349;DHT22;7258;50.376;8.742;2023-10-31T00:00:56;12.10;99.90
14349;DHT22;7258;50.376;8.742;2023-10-31T00:03:00;12.20;99.90
14349;DHT22;7258;50.376;8.742;2023-10-31T00:05:05;12.20;99.90
14349;DHT22;7258;50.376;8.742;2023-10-31T00:07:07;12.10;99.90
14349;DHT22;7258;50.376;8.742;2023-10-31T00:09:10;12.10;99.90
14349;DHT22;7258;50.376;8.742;2023-10-31T00:11:13;12.10;99.90
14349;DHT22;7258;50.376;8.742;2023-10-31T00:13:16;12.10;99.90
14349;DHT22;7258;50.376;8.742;2023-10-31T00:15:23;12.00;99.90
14349;DHT22;7258;50.376;8.742;2023-10-31T00:17:27;11.90;99.90
14349;DHT22;7258;50.376;8.742;2023-10-31T00:19:30;11.90;99.90
14349;DHT22;7258;50.376;8.742;2023-10-31T00:21:34;11.80;99.90
14349;DHT22;7258;50.376;8.742;2023-10-31T00:23:43;11.70;99.90
14349;DHT22;7258;50.376;8.742;2023-10-31T00:25:47;11.70;99.90
14349;DHT22;7258;50.376;8.742;2023-10-31T00:27:50;11.60;99.90
14349;DHT22;7258;50.376;8.742;2023-10-31T00:29:52;11.60;99.90
14349;DHT22;7258;50.376;8.742;2023-10-31T00:31:55;11.60;99.90
14349;DHT22;7258;50.376;8.742;2023-10-31T00:33:57;11.50;99.90
14349;DHT22;7258;50.376;8.742;2023-10-31T00:36:01;11.50;99.90
14349;DHT22;7258;50.376;8.742;2023-10-31T00:38:05;11.50;99.90
14349;DHT22;7258;50.376;8.742;2023-10-31T00:40:09;11.40;99.90
14349;DHT22;7258;50.376;8.742;2023-10-31T00:42:12;11.40;99.90
14349;DHT22;7258;50.376;8.742;2023-10-31T00:44:14;11.40;99.90
14349;DHT22;7258;50.376;8.742;2023-10-31T00:46:17;11.30;99.90
14349;DHT22;7258;50.376;8.742;2023-10-31T00:48:20;11.30;99.90
14349;DHT22;7258;50.376;8.742;2023-10-31T00:50:22;11.30;99.90
14349;DHT22;7258;50.376;8.742;2023-10-31T00:52:25;11.30;99.90
14349;DHT22;7258;50.376;8.742;2023-10-31T00:54:29;11.30;99.90
14349;DHT22;7258;50.376;8.742;2023-10-31T00:56:32;11.30;99.90
14349;DHT22;7258;50.376;8.742;2023-10-31T00:58:36;11.30;99.90
14349;DHT22;7258;50.376;8.742;2023-10-31T01:00:38;11.30;99.90
14349;DHT22;7258;50.376;8.742;2023-10-31T01:02:42;11.30;99.90
14349;DHT22;7258;50.376;8.742;2023-10-31T01:04:45;11.30;99.90
14349;DHT22;7258;50.376;8.742;2023-10-31T01:06:48;11.20;99.90
14349;DHT22;7258;50.376;8.742;2023-10-31T01:08:52;11.30;99.90
14349;DHT22;7258;50.376;8.742;2023-10-31T01:10:56;11.30;99.90
14349;DHT22;7258;50.376;8.742;2023-10-31T01:12:58;11.20;99.90
14349;DHT22;7258;50.376;8.742;2023-10-31T01:15:01;11.20;99.90
14349;DHT22;7258;50.376;8.742;2023-10-31T01:17:04;11.20;99.90
14349;DHT22;7258;50.376;8.742;2023-10-31T01:19:07;11.20;99.90
14349;DHT22;7258;50.376;8.742;2023-10-31T01:21:10;11.10;99.90
14349;DHT22;7258;50.376;8.742;2023-10-31T01:23:12;11.10;99.90
14349;DHT22;7258;50.376;8.742;2023-10-31T01:25:15;11.00;99.90
14349;DHT22;7258;50.376;8.742;2023-10-31T01:27:18;11.00;99.90
14349;DHT22;7258;50.376;8.742;2023-10-31T01:29:21;10.90;99.90
14349;DHT22;7258;50.376;8.742;2023-10-31T01:31:23;10.90;99.90
14349;DHT22;7258;50.376;8.742;2023-10-31T01:33:26;10.80;99.90
14349;DHT22;7258;50.376;8.742;2023-10-31T01:35:29;10.80;99.90
14349;DHT22;7258;50.376;8.742;2023-10-31T01:37:32;10.80;99.90
14349;DHT22;7258;50.376;8.742;2023-10-31T01:39:36;10.80;99.90
14349;DHT22;7258;50.376;8.742;2023-10-31T01:41:40;10.70;99.90
14349;DHT22;7258;50.376;8.742;2023-10-31T01:43:45;10.70;99.90
14349;DHT22;7258;50.376;8.742;2023-10-31T01:45:48;10.70;99.90
14349;DHT22;7258;50.376;8.742;2023-10-31T01:47:50;10.70;99.90
14349;DHT22;7258;50.376;8.742;2023-10-31T01:49:53;10.70;99.90
14349;DHT22;7258;50.376;8.742;2023-10-31T01:51:57;10.70;99.90
14349;DHT22;7258;50.376;8.742;2023-10-31T01:53:59;10.60;99.90
14349;DHT22;7258;50.376;8.742;2023-10-31T01:56:03;10.60;99.90
14349;DHT22;7258;50.376;8.742;2023-10-31T01:58:08;10.60;99.90
14349;DHT22;7258;50.376;8.742;2023-10-31T02:00:14;10.50;99.90
14349;DHT22;7258;50.376;8.742;2023-10-31T02:02:20;10.50;99.90
14349;DHT22;7258;50.376;8.742;2023-10-31T02:04:25;10.40;99.90
14349;DHT22;7258;50.376;8.742;2023-10-31T02:06:28;10.40;99.90
14349;DHT22;7258;50.376;8.742;2023-10-31T02:08:32;10.30;99.90
14349;DHT22;7258;50.376;8.742;2023-10-31T02:10:35;10.30;99.90
14349;DHT22;7258;50.376;8.742;2023-10-31T02:12:38;10.40;99.90
14349;DHT22;7258;50.376;8.742;2023-10-31T02:14:41;10.40;99.90
14349;DHT22;7258;50.376;8.742;2023-10-31T02:16:45;10.50;99.90
14349;DHT22;7258;50.376;8.742;2023-10-31T02:18:47;10.50;99.90
14349;DHT22;7258;50.376;8.742;2023-10-31T02:20:49;10.50;99.90
14349;DHT22;7258;50.376;8.742;2023-10-31T02:22:54;10.60;99.90
14349;DHT22;7258;50.376;8.742;2023-10-31T02:24:55;10.60;99.90
14349;DHT22;7258;50.376;8.742;2023-10-31T02:26:58;10.60;99.90
14349;DHT22;7258;50.376;8.742;2023-10-31T02:29:02;10.50;99.90
14349;DHT22;7258;50.376;8.742;2023-10-31T02:31:05;10.50;99.90
14349;DHT22;7258;50.376;8.742;2023-10-31T02:33:08;10.50;99.90
14349;DHT22;7258;50.376;8.742;2023-10-31T02:35:12;10.50;99.90
14349;DHT22;7258;50.376;8.742;2023-10-31T02:37:15;10.50;99.90
14349;DHT22;7258;50.376;8.742;2023-10-31T02:39:19;10.50;99.90
14349;DHT22;7258;50.376;8.742;2023-10-31T02:41:22;10.50;99.90
14349;DHT22;7258;50.376;8.742;2023-10-31T02:43:25;10.50;99.90
14349;DHT22;7258;50.376;8.742;2023-10-31T02:45:28;10.40;99.90
14349;DHT22;7258;50.376;8.742;2023-10-31T02:47:29;10.40;99.90
14349;DHT22;7258;50.376;8.742;2023-10-31T02:49:32;10.40;99.90
14349;DHT22;7258;50.376;8.742;2023-10-31T02:51:35;10.40;99.90
14349;DHT22;7258;50.376;8.742;2023-10-31T02:53:38;10.40;99.90
14349;DHT22;7258;50.376;8.742;2023-10-31T02:55:42;10.30;99.90
14349;DHT22;7258;50.376;8.742;2023-10-31T02:57:44;10.30;99.90
14349;DHT22;7258;50.376;8.742;2023-10-31T02:59:47;10.30;99.90
14349;DHT22;7258;50.376;8.742;2023-10-31T03:01:50;10.30;99.90
14349;DHT22;7258;50.376;8.742;2023-10-31T03:03:53;10.30;99.90
14349;DHT22;7258;50.376;8.742;2023-10-31T03:05:56;10.40;99.90
14349;DHT22;7258;50.376;8.742;2023-10-31T03:07:59;10.40;99.90
14349;DHT22;7258;50.376;8.742;2023-10-31T03:10:01;10.40;99.90
14349;DHT22;7258;50.376;8.742;2023-10-31T03:12:06;10.40;99.90
14349;DHT22;7258;50.376;8.742;2023-10-31T03:14:09;10.40;99.90
14349;DHT22;7258;50.376;8.742;2023-10-31T03:16:12;10.30;99.90
14349;DHT22;7258;50.376;8.742;2023-10-31T03:18:15;10.30;99.90
14349;DHT22;7258;50.376;8.742;2023-10-31T03:20:18;10.30;99.90
14349;DHT22;7258;50.376;8.742;2023-10-31T03:22:21;10.30;99.90
14349;DHT22;7258;50.376;8.742;2023-10-31T03:24:24;10.30;99.90
14349;DHT22;7258;50.376;8.742;2023-10-31T03:26:27;10.30;99.90
14349;DHT22;7258;50.376;8.742;2023-10-31T03:28:30;10.30;99.90
14349;DHT22;7258;50.376;8.742;2023-10-31T03:30:33;10.40;99.90
14349;DHT22;7258;50.376;8.742;2023-10-31T03:32:36;10.40;99.90
14349;DHT22;7258;50.376;8.742;2023-10-31T03:34:39;10.40;99.90
14349;DHT22;7258;50.376;8.742;2023-10-31T03:36:41;10.40;99.90
14349;DHT22;7258;50.376;8.742;2023-10-31T03:38:44;10.50;99.90
14349;DHT22;7258;50.376;8.742;2023-10-31T03:40:47;10.50;99.90
14349;DHT22;7258;50.376;8.742;2023-10-31T03:42:50;10.50;99.90
14349;DHT22;7258;50.376;8.742;2023-10-31T03:44:54;10.50;99.90
14349;DHT22;7258;50.376;8.742;2023-10-31T03:46:57;10.50;99.90
14349;DHT22;7258;50.376;8.742;2023-10-31T03:49:00;10.40;99.90
14349;DHT22;7258;50.376;8.742;2023-10-31T03:51:03;10.40;99.90
14349;DHT22;7258;50.376;8.742;2023-10-31T03:53:05;10.30;99.90
14349;DHT22;7258;50.376;8.742;2023-10-31T03:55:08;10.30;99.90
14349;DHT22;7258;50.376;8.742;2023-10-31T03:57:13;10.30;99.90
14349;DHT22;7258;50.376;8.742;2023-10-31T03:59:16;10.20;99.90
14349;DHT22;7258;50.376;8.742;2023-10-31T04:01:20;10.20;99.90
14349;DHT22;7258;50.376;8.742;2023-10-31T04:03:23;10.20;99.90
14349;DHT22;7258;50.376;8.742;2023-10-31T04:05:24;10.20;99.90
14349;DHT22;7258;50.376;8.742;2023-10-31T04:07:27;10.20;99.90
14349;DHT22;7258;50.376;8.742;2023-10-31T04:09:30;10.10;99.90
14349;DHT22;7258;50.376;8.742;2023-10-31T04:11:33;10.00;99.90
14349;DHT22;7258;50.376;8.742;2023-10-31T04:13:36;10.00;99.90
14349;DHT22;7258;50.376;8.742;2023-10-31T04:15:39;9.90;99.90
14349;DHT22;7258;50.376;8.742;2023-10-31T04:17:43;9.90;99.90
14349;DHT22;7258;50.376;8.742;2023-10-31T04:19:45;9.80;99.90
14349;DHT22;7258;50.376;8.742;2023-10-31T04:21:48;9.70;99.90
14349;DHT22;7258;50.376;8.742;2023-10-31T04:23:51;9.70;99.90
14349;DHT22;7258;50.376;8.742;2023-10-31T04:25:54;9.60;99.90
14349;DHT22;7258;50.376;8.742;2023-10-31T04:27:57;9.60;99.90
14349;DHT22;7258;50.376;8.742;2023-10-31T04:30:01;9.50;99.90
14349;DHT22;7258;50.376;8.742;2023-10-31T04:32:04;9.40;99.90
14349;DHT22;7258;50.376;8.742;2023-10-31T04:34:09;9.40;99.90
14349;DHT22;7258;50.376;8.742;2023-10-31T04:36:11;9.30;99.90
14349;DHT22;7258;50.376;8.742;2023-10-31T04:38:14;9.20;99.90
14349;DHT22;7258;50.376;8.742;2023-10-31T04:40:16;9.20;99.90
14349;DHT22;7258;50.376;8.742;2023-10-31T04:42:19;9.10;99.90
14349;DHT22;7258;50.376;8.742;2023-10-31T04:44:22;9.00;99.90
14349;DHT22;7258;50.376;8.742;2023-10-31T04:46:25;9.00;99.90
14349;DHT22;7258;50.376;8.742;2023-10-31T04:48:29;9.00;99.90
14349;DHT22;7258;50.376;8.742;2023-10-31T04:50:34;9.00;99.90
14349;DHT22;7258;50.376;8.742;2023-10-31T04:52:37;9.10;99.90
14349;DHT22;7258;50.376;8.742;2023-10-31T04:54:40;9.10;99.90
14349;DHT22;7258;50.376;8.742;2023-10-31T04:56:43;9.00;99.90
14349;DHT22;7258;50.376;8.742;2023-10-31T04:58:45;9.10;99.90
14349;DHT22;7258;50.376;8.742;2023-10-31T05:00:48;9.10;99.90
14349;DHT22;7258;50.376;8.742;2023-10-31T05:02:51;9.10;99.90
14349;DHT22;7258;50.376;8.742;2023-10-31T05:04:54;9.20;99.90
14349;DHT22;7258;50.376;8.742;2023-10-31T05:06:58;9.20;99.90
14349;DHT22;7258;50.376;8.742;2023-10-31T05:09:01;9.30;99.90
14349;DHT22;7258;50.376;8.742;2023-10-31T05:11:03;9.30;99.90
14349;DHT22;7258;50.376;8.742;2023-10-31T05:13:06;9.40;99.90
14349;DHT22;7258;50.376;8.742;2023-10-31T05:15:10;9.40;99.90
14349;DHT22;7258;50.376;8.742;2023-10-31T05:17:12;9.40;99.90
14349;DHT22;7258;50.376;8.742;2023-10-31T05:19:15;9.50;99.90
14349;DHT22;7258;50.376;8.742;2023-10-31T05:21:19;9.50;99.90
14349;DHT22;7258;50.376;8.742;2023-10-31T05:23:24;9.50;99.90
14349;DHT22;7258;50.376;8.742;2023-10-31T05:25:26;9.50;99.90
14349;DHT22;7258;50.376;8.742;2023-10-31T05:27:29;9.50;99.90
14349;DHT22;7258;50.376;8.742;2023-10-31T05:29:35;9.40;99.90
14349;DHT22;7258;50.376;8.742;2023-10-31T05:31:38;9.40;99.90
14349;DHT22;7258;50.376;8.742;2023-10-31T05:33:43;9.40;99.90
14349;DHT22;7258;50.376;8.742;2023-10-31T05:35:46;9.30;99.90
14349;DHT22;7258;50.376;8.742;2023-10-31T05:37:48;9.30;99.90
14349;DHT22;7258;50.376;8.742;2023-10-31T05:39:52;9.30;99.90
14349;DHT22;7258;50.376;8.742;2023-10-31T05:41:55;9.20;99.90
14349;DHT22;7258;50.376;8.742;2023-10-31T05:43:58;9.20;99.90
14349;DHT22;7258;50.376;8.742;2023-10-31T05:46:00;9.20;99.90
14349;DHT22;7258;50.376;8.742;2023-10-31T05:48:03;9.20;99.90
14349;DHT22;7258;50.376;8.742;2023-10-31T05:50:07;9.10;99.90
14349;DHT22;7258;50.376;8.742;2023-10-31T05:52:10;9.20;99.90
14349;DHT22;7258;50.376;8.742;2023-10-31T05:54:12;9.20;99.90
14349;DHT22;7258;50.376;8.742;2023-10-31T05:56:16;9.20;99.90
14349;DHT22;7258;50.376;8.742;2023-10-31T05:58:19;9.10;99.90
14349;DHT22;7258;50.376;8.742;2023-10-31T06:00:21;9.10;99.90
14349;DHT22;7258;50.376;8.742;2023-10-31T06:02:24;9.10;99.90
14349;DHT22;7258;50.376;8.742;2023-10-31T06:04:26;9.10;99.90
14349;DHT22;7258;50.376;8.742;2023-10-31T06:06:29;9.10;99.90
14349;DHT22;7258;50.376;8.742;2023-10-31T06:08:32;9.20;99.90
14349;DHT22;7258;50.376;8.742;2023-10-31T06:10:36;9.20;99.90
14349;DHT22;7258;50.376;8.742;2023-10-31T06:12:40;9.20;99.90
14349;DHT22;7258;50.376;8.742;2023-10-31T06:14:44;9.40;99.90
14349;DHT22;7258;50.376;8.742;2023-10-31T06:16:47;9.40;99.90
14349;DHT22;7258;50.376;8.742;2023-10-31T06:18:50;9.40;99.90
14349;DHT22;7258;50.376;8.742;2023-10-31T06:20:52;9.50;99.90
14349;DHT22;7258;50.376;8.742;2023-10-31T06:22:54;9.50;99.90
14349;DHT22;7258;50.376;8.742;2023-10-31T06:24:57;9.60;99.90
14349;DHT22;7258;50.376;8.742;2023-10-31T06:27:00;9.60;99.90
14349;DHT22;7258;50.376;8.742;2023-10-31T06:29:04;9.60;99.90
14349;DHT22;7258;50.376;8.742;2023-10-31T06:31:27;9.60;99.90
14349;DHT22;7258;50.376;8.742;2023-10-31T06:33:29;9.70;99.90
14349;DHT22;7258;50.376;8.742;2023-10-31T06:35:32;9.70;99.90
14349;DHT22;7258;50.376;8.742;2023-10-31T06:37:35;9.70;99.90
14349;DHT22;7258;50.376;8.742;2023-10-31T06:39:38;9.80;99.90
14349;DHT22;7258;50.376;8.742;2023-10-31T06:41:41;9.80;99.90
14349;DHT22;7258;50.376;8.742;2023-10-31T06:43:44;9.80;99.90
14349;DHT22;7258;50.376;8.742;2023-10-31T06:45:48;9.80;99.90
14349;DHT22;7258;50.376;8.742;2023-10-31T06:47:50;9.80;99.90
14349;DHT22;7258;50.376;8.742;2023-10-31T06:49:53;9.90;99.90
14349;DHT22;7258;50.376;8.742;2023-10-31T06:51:55;9.90;99.90
14349;DHT22;7258;50.376;8.742;2023-10-31T06:53:58;9.90;99.90
14349;DHT22;7258;50.376;8.742;2023-10-31T06:56:01;9.90;99.90
14349;DHT22;7258;50.376;8.742;2023-10-31T06:58:07;9.90;99.90
14349;DHT22;7258;50.376;8.742;2023-10-31T07:00:10;10.00;99.90
14349;DHT22;7258;50.376;8.742;2023-10-31T07:02:14;10.00;99.90
14349;DHT22;7258;50.376;8.742;2023-10-31T07:04:17;10.00;99.90
14349;DHT22;7258;50.376;8.742;2023-10-31T07:06:20;10.10;99.90
14349;DHT22;7258;50.376;8.742;2023-10-31T07:08:23;10.10;99.90
14349;DHT22;7258;50.376;8.742;2023-10-31T07:10:26;10.10;99.90
14349;DHT22;7258;50.376;8.742;2023-10-31T07:12:28;10.10;99.90
14349;DHT22;7258;50.376;8.742;2023-10-31T07:14:31;10.10;99.90
14349;DHT22;7258;50.376;8.742;2023-10-31T07:16:34;10.10;99.90
14349;DHT22;7258;50.376;8.742;2023-10-31T07:18:38;10.20;99.90
14349;DHT22;7258;50.376;8.742;2023-10-31T07:20:40;10.20;99.90
14349;DHT22;7258;50.376;8.742;2023-10-31T07:22:43;10.20;99.90
14349;DHT22;7258;50.376;8.742;2023-10-31T07:24:47;10.20;99.90
14349;DHT22;7258;50.376;8.742;2023-10-31T07:26:50;10.20;99.90
14349;DHT22;7258;50.376;8.742;2023-10-31T07:28:52;10.30;99.90
14349;DHT22;7258;50.376;8.742;2023-10-31T07:30:55;10.30;99.90
14349;DHT22;7258;50.376;8.742;2023-10-31T07:32:58;10.30;99.90
14349;DHT22;7258;50.376;8.742;2023-10-31T07:35:03;10.40;99.90
14349;DHT22;7258;50.376;8.742;2023-10-31T07:37:06;10.40;99.90
14349;DHT22;7258;50.376;8.742;2023-10-31T07:39:09;10.40;99.90
14349;DHT22;7258;50.376;8.742;2023-10-31T07:41:14;10.40;99.90
14349;DHT22;7258;50.376;8.742;2023-10-31T07:43:17;10.40;99.90
14349;DHT22;7258;50.376;8.742;2023-10-31T07:45:20;10.50;99.90
14349;DHT22;7258;50.376;8.742;2023-10-31T07:47:23;10.50;99.90
14349;DHT22;7258;50.376;8.742;2023-10-31T07:49:26;10.50;99.90
14349;DHT22;7258;50.376;8.742;2023-10-31T07:51:29;10.60;99.90
14349;DHT22;7258;50.376;8.742;2023-10-31T07:53:32;10.60;99.90
14349;DHT22;7258;50.376;8.742;2023-10-31T07:55:34;10.60;99.90
14349;DHT22;7258;50.376;8.742;2023-10-31T07:57:37;10.60;99.90
14349;DHT22;7258;50.376;8.742;2023-10-31T07:59:40;10.60;99.90
14349;DHT22;7258;50.376;8.742;2023-10-31T08:01:43;10.70;99.90
14349;DHT22;7258;50.376;8.742;2023-10-31T08:03:45;10.60;99.90
14349;DHT22;7258;50.376;8.742;2023-10-31T08:05:49;10.60;99.90
14349;DHT22;7258;50.376;8.742;2023-10-31T08:07:53;10.60;99.90
14349;DHT22;7258;50.376;8.742;2023-10-31T08:09:56;10.60;99.90
14349;DHT22;7258;50.376;8.742;2023-10-31T08:11:58;10.60;99.90
14349;DHT22;7258;50.376;8.742;2023-10-31T08:14:01;10.60;99.90
14349;DHT22;7258;50.376;8.742;2023-10-31T08:16:05;10.50;99.90
14349;DHT22;7258;50.376;8.742;2023-10-31T08:18:09;10.50;99.90
14349;DHT22;7258;50.376;8.742;2023-10-31T08:20:12;10.50;99.90
14349;DHT22;7258;50.376;8.742;2023-10-31T08:22:16;10.60;99.90
14349;DHT22;7258;50.376;8.742;2023-10-31T08:24:22;10.60;99.90
14349;DHT22;7258;50.376;8.742;2023-10-31T08:26:25;10.60;99.90
14349;DHT22;7258;50.376;8.742;2023-10-31T08:28:28;10.60;99.90
14349;DHT22;7258;50.376;8.742;2023-10-31T08:30:31;10.70;99.90
14349;DHT22;7258;50.376;8.742;2023-10-31T08:32:35;10.70;99.90
14349;DHT22;7258;50.376;8.742;2023-10-31T08:34:38;10.80;99.90
14349;DHT22;7258;50.376;8.742;2023-10-31T08:36:41;10.80;99.90
14349;DHT22;7258;50.376;8.742;2023-10-31T08:38:43;10.80;99.90
14349;DHT22;7258;50.376;8.742;2023-10-31T08:40:47;10.80;99.90
14349;DHT22;7258;50.376;8.742;2023-10-31T08:42:51;10.90;99.90
14349;DHT22;7258;50.376;8.742;2023-10-31T08:44:54;10.90;99.90
14349;DHT22;7258;50.376;8.742;2023-10-31T08:46:57;11.00;99.90
14349;DHT22;7258;50.376;8.742;2023-10-31T08:49:00;11.00;99.90
14349;DHT22;7258;50.376;8.742;2023-10-31T08:51:03;11.00;99.90
14349;DHT22;7258;50.376;8.742;2023-10-31T08:53:06;11.00;99.90
14349;DHT22;7258;50.376;8.742;2023-10-31T08:55:09;11.00;99.90
14349;DHT22;7258;50.376;8.742;2023-10-31T08:57:13;11.00;99.90
14349;DHT22;7258;50.376;8.742;2023-10-31T08:59:16;10.90;99.90
14349;DHT22;7258;50.376;8.742;2023-10-31T09:01:18;11.00;99.90
14349;DHT22;7258;50.376;8.742;2023-10-31T09:03:21;11.00;99.90
14349;DHT22;7258;50.376;8.742;2023-10-31T09:05:24;11.10;99.90
14349;DHT22;7258;50.376;8.742;2023-10-31T09:07:27;11.10;99.90
14349;DHT22;7258;50.376;8.742;2023-10-31T09:09:30;11.20;99.90
14349;DHT22;7258;50.376;8.742;2023-10-31T09:11:33;11.20;99.90
14349;DHT22;7258;50.376;8.742;2023-10-31T09:13:37;11.20;99.90
14349;DHT22;7258;50.376;8.742;2023-10-31T09:15:40;11.20;99.90
14349;DHT22;7258;50.376;8.742;2023-10-31T09:17:43;11.20;99.90
14349;DHT22;7258;50.376;8.742;2023-10-31T09:19:45;11.30;99.90
14349;DHT22;7258;50.376;8.742;2023-10-31T09:21:48;11.30;99.90
14349;DHT22;7258;50.376;8.742;2023-10-31T09:23:51;11.40;99.90
14349;DHT22;7258;50.376;8.742;2023-10-31T09:25:54;11.40;99.90
14349;DHT22;7258;50.376;8.742;2023-10-31T09:27:58;11.40;99.90
14349;DHT22;7258;50.376;8.742;2023-10-31T09:30:03;11.40;99.90
14349;DHT22;7258;50.376;8.742;2023-10-31T09:32:06;11.40;99.90
14349;DHT22;7258;50.376;8.742;2023-10-31T09:34:08;11.40;99.90
14349;DHT22;7258;50.376;8.742;2023-10-31T09:36:11;11.40;99.90
14349;DHT22;7258;50.376;8.742;2023-10-31T09:38:15;11.50;99.90
14349;DHT22;7258;50.376;8.742;2023-10-31T09:40:18;11.50;99.90
14349;DHT22;7258;50.376;8.742;2023-10-31T09:42:21;11.50;99.90
14349;DHT22;7258;50.376;8.742;2023-10-31T09:44:24;11.60;99.90
14349;DHT22;7258;50.376;8.742;2023-10-31T09:46:28;11.60;99.90
14349;DHT22;7258;50.376;8.742;2023-10-31T09:48:31;11.70;99.90
14349;DHT22;7258;50.376;8.742;2023-10-31T09:50:34;11.80;99.90
14349;DHT22;7258;50.376;8.742;2023-10-31T09:52:38;11.80;99.90
14349;DHT22;7258;50.376;8.742;2023-10-31T09:54:41;11.90;99.90
14349;DHT22;7258;50.376;8.742;2023-10-31T09:56:47;12.00;99.90
14349;DHT22;7258;50.376;8.742;2023-10-31T09:58:51;12.10;99.90
14349;DHT22;7258;50.376;8.742;2023-10-31T10:00:54;12.20;99.90
14349;DHT22;7258;50.376;8.742;2023-10-31T10:02:58;12.30;99.90
14349;DHT22;7258;50.376;8.742;2023-10-31T10:05:02;12.40;99.90
14349;DHT22;7258;50.376;8.742;2023-10-31T10:07:04;12.50;99.90
14349;DHT22;7258;50.376;8.742;2023-10-31T10:09:07;12.60;99.90
14349;DHT22;7258;50.376;8.742;2023-10-31T10:11:11;12.80;99.90
14349;DHT22;7258;50.376;8.742;2023-10-31T10:13:17;12.90;99.90
14349;DHT22;7258;50.376;8.742;2023-10-31T10:15:20;12.90;99.90
14349;DHT22;7258;50.376;8.742;2023-10-31T10:17:24;12.80;99.90
14349;DHT22;7258;50.376;8.742;2023-10-31T10:19:29;12.80;99.90
14349;DHT22;7258;50.376;8.742;2023-10-31T10:21:46;12.70;99.90
14349;DHT22;7258;50.376;8.742;2023-10-31T10:23:51;12.70;99.90
14349;DHT22;7258;50.376;8.742;2023-10-31T10:25:55;12.70;99.90
14349;DHT22;7258;50.376;8.742;2023-10-31T10:27:57;12.70;99.90
14349;DHT22;7258;50.376;8.742;2023-10-31T10:30:00;12.80;99.90
14349;DHT22;7258;50.376;8.742;2023-10-31T10:32:05;12.80;99.90
14349;DHT22;7258;50.376;8.742;2023-10-31T10:34:12;12.80;99.90
14349;DHT22;7258;50.376;8.742;2023-10-31T10:36:17;12.90;99.90
14349;DHT22;7258;50.376;8.742;2023-10-31T10:38:22;12.90;99.90
14349;DHT22;7258;50.376;8.742;2023-10-31T10:40:26;12.90;99.90
14349;DHT22;7258;50.376;8.742;2023-10-31T10:42:32;12.90;99.90
14349;DHT22;7258;50.376;8.742;2023-10-31T10:44:36;12.90;99.90
14349;DHT22;7258;50.376;8.742;2023-10-31T10:46:39;12.90;99.90
14349;DHT22;7258;50.376;8.742;2023-10-31T10:48:44;12.80;99.90
14349;DHT22;7258;50.376;8.742;2023-10-31T10:50:52;12.80;99.90
14349;DHT22;7258;50.376;8.742;2023-10-31T10:53:09;12.90;99.90
14349;DHT22;7258;50.376;8.742;2023-10-31T10:55:17;13.10;99.90
14349;DHT22;7258;50.376;8.742;2023-10-31T10:57:27;13.30;99.90
14349;DHT22;7258;50.376;8.742;2023-10-31T10:59:39;13.40;99.90
14349;DHT22;7258;50.376;8.742;2023-10-31T11:01:43;13.60;99.90
14349;DHT22;7258;50.376;8.742;2023-10-31T11:03:49;13.70;99.90
14349;DHT22;7258;50.376;8.742;2023-10-31T11:05:53;13.90;99.90
14349;DHT22;7258;50.376;8.742;2023-10-31T11:07:57;14.00;99.90
14349;DHT22;7258;50.376;8.742;2023-10-31T11:10:03;13.80;99.90
14349;DHT22;7258;50.376;8.742;2023-10-31T11:12:07;13.70;99.90
14349;DHT22;7258;50.376;8.742;2023-10-31T11:14:11;13.70;99.90
14349;DHT22;7258;50.376;8.742;2023-10-31T11:16:19;13.70;99.90
14349;DHT22;7258;50.376;8.742;2023-10-31T11:18:23;13.60;99.90
14349;DHT22;7258;50.376;8.742;2023-10-31T11:20:27;13.60;99.90
14349;DHT22;7258;50.376;8.742;2023-10-31T11:22:37;13.60;99.90
14349;DHT22;7258;50.376;8.742;2023-10-31T11:24:42;13.60;99.90
14349;DHT22;7258;50.376;8.742;2023-10-31T11:26:52;13.60;99.90
14349;DHT22;7258;50.376;8.742;2023-10-31T11:29:03;13.70;99.90
14349;DHT22;7258;50.376;8.742;2023-10-31T11:31:08;13.90;99.90
14349;DHT22;7258;50.376;8.742;2023-10-31T11:33:12;13.90;99.90
14349;DHT22;7258;50.376;8.742;2023-10-31T11:35:16;13.90;99.90
14349;DHT22;7258;50.376;8.742;2023-10-31T11:37:24;14.00;99.90
14349;DHT22;7258;50.376;8.742;2023-10-31T11:39:26;14.10;99.90
14349;DHT22;7258;50.376;8.742;2023-10-31T11:41:32;14.20;99.90
14349;DHT22;7258;50.376;8.742;2023-10-31T11:43:54;14.30;99.90
14349;DHT22;7258;50.376;8.742;2023-10-31T11:45:58;14.40;99.90
14349;DHT22;7258;50.376;8.742;2023-10-31T11:48:02;14.40;99.90
14349;DHT22;7258;50.376;8.742;2023-10-31T11:50:06;14.20;99.90
14349;DHT22;7258;50.376;8.742;2023-10-31T11:52:14;14.20;99.90
14349;DHT22;7258;50.376;8.742;2023-10-31T11:54:17;14.20;99.90
14349;DHT22;7258;50.376;8.742;2023-10-31T11:56:21;14.10;99.90
14349;DHT22;7258;50.376;8.742;2023-10-31T11:58:25;14.10;99.90
14349;DHT22;7258;50.376;8.742;2023-10-31T12:00:29;14.10;99.90
14349;DHT22;7258;50.376;8.742;2023-10-31T12:02:31;14.00;99.90
14349;DHT22;7258;50.376;8.742;2023-10-31T12:04:34;13.90;99.90
14349;DHT22;7258;50.376;8.742;2023-10-31T12:06:37;13.80;99.90
14349;DHT22;7258;50.376;8.742;2023-10-31T12:08:41;13.80;99.90
14349;DHT22;7258;50.376;8.742;2023-10-31T12:10:43;13.80;99.90
14349;DHT22;7258;50.376;8.742;2023-10-31T12:12:46;13.80;99.90
14349;DHT22;7258;50.376;8.742;2023-10-31T12:14:49;13.90;99.90
14349;DHT22;7258;50.376;8.742;2023-10-31T12:16:53;14.00;99.90
14349;DHT22;7258;50.376;8.742;2023-10-31T12:18:58;14.00;99.90
14349;DHT22;7258;50.376;8.742;2023-10-31T12:21:02;14.00;99.90
14349;DHT22;7258;50.376;8.742;2023-10-31T12:23:05;14.00;99.90
14349;DHT22;7258;50.376;8.742;2023-10-31T12:25:09;14.00;99.90
14349;DHT22;7258;50.376;8.742;2023-10-31T12:27:12;14.00;99.90
14349;DHT22;7258;50.376;8.742;2023-10-31T12:29:17;14.10;99.90
14349;DHT22;7258;50.376;8.742;2023-10-31T12:31:20;14.10;99.90
14349;DHT22;7258;50.376;8.742;2023-10-31T12:33:26;14.20;99.90
14349;DHT22;7258;50.376;8.742;2023-10-31T12:35:29;14.30;99.90
14349;DHT22;7258;50.376;8.742;2023-10-31T12:37:32;14.50;99.90
14349;DHT22;7258;50.376;8.742;2023-10-31T12:39:35;14.60;99.90
14349;DHT22;7258;50.376;8.742;2023-10-31T12:41:40;14.60;99.90
14349;DHT22;7258;50.376;8.742;2023-10-31T12:43:43;14.70;99.90
14349;DHT22;7258;50.376;8.742;2023-10-31T12:45:45;14.60;99.90
14349;DHT22;7258;50.376;8.742;2023-10-31T12:48:00;14.70;99.90
14349;DHT22;7258;50.376;8.742;2023-10-31T12:50:09;14.60;99.90
14349;DHT22;7258;50.376;8.742;2023-10-31T12:52:14;14.50;99.90
14349;DHT22;7258;50.376;8.742;2023-10-31T12:54:27;14.40;99.90
14349;DHT22;7258;50.376;8.742;2023-10-31T12:56:39;14.40;99.90
14349;DHT22;7258;50.376;8.742;2023-10-31T12:58:42;14.40;99.90
14349;DHT22;7258;50.376;8.742;2023-10-31T13:00:45;14.40;99.90
14349;DHT22;7258;50.376;8.742;2023-10-31T13:02:48;14.40;99.90
14349;DHT22;7258;50.376;8.742;2023-10-31T13:04:50;14.50;99.90
14349;DHT22;7258;50.376;8.742;2023-10-31T13:07:00;14.40;99.90
14349;DHT22;7258;50.376;8.742;2023-10-31T13:09:04;14.40;99.90
14349;DHT22;7258;50.376;8.742;2023-10-31T13:11:14;14.30;99.90
14349;DHT22;7258;50.376;8.742;2023-10-31T13:13:16;14.20;99.90
14349;DHT22;7258;50.376;8.742;2023-10-31T13:15:20;14.20;99.90
14349;DHT22;7258;50.376;8.742;2023-10-31T13:17:23;14.10;99.90